createdAt,value
2019-05-30T00:00:28.407Z,5.75
2019-05-30T00:02:58.580Z,6.78
2019-05-30T00:05:27.981Z,5.05
2019-05-30T00:07:58.188Z,5.15
2019-05-30T00:10:27.529Z,4.47
2019-05-30T00:12:56.762Z,4.70
2019-05-30T00:15:25.947Z,7.65
2019-05-30T00:17:56.630Z,8.90
2019-05-30T00:20:26.046Z,8.93
2019-05-30T00:22:55.324Z,5.03
2019-05-30T00:25:24.839Z,8.68
2019-05-30T00:27:55.049Z,3.45
2019-05-30T00:30:25.016Z,6.20
2019-05-30T00:32:54.360Z,6.92
2019-05-30T00:35:23.598Z,6.75
2019-05-30T00:37:52.818Z,6.45
2019-05-30T00:40:22.050Z,9.50
2019-05-30T00:42:51.250Z,7.87
2019-05-30T00:45:21.507Z,5.83
2019-05-30T00:47:50.914Z,18.45
2019-05-30T00:50:20.208Z,7.45
2019-05-30T00:52:49.514Z,7.65
2019-05-30T00:55:18.792Z,6.62
2019-05-30T00:57:48.038Z,9.30
2019-05-30T01:00:17.636Z,11.12
2019-05-30T01:02:46.902Z,7.45
2019-05-30T01:05:16.255Z,6.62
2019-05-30T01:07:45.499Z,9.83
2019-05-30T01:10:15.351Z,6.28
2019-05-30T01:12:44.576Z,6.53
2019-05-30T01:15:14.269Z,5.00
2019-05-30T01:17:43.498Z,11.60
2019-05-30T01:20:13.566Z,5.22
2019-05-30T01:22:44.995Z,8.33
2019-05-30T01:25:14.299Z,6.50
2019-05-30T01:27:43.636Z,12.78
2019-05-30T01:30:13.355Z,5.60
2019-05-30T01:32:44.726Z,8.75
2019-05-30T01:35:14.081Z,9.70
2019-05-30T01:37:43.336Z,11.12
2019-05-30T01:40:13.086Z,5.53
2019-05-30T01:42:44.552Z,4.28
2019-05-30T01:45:15.344Z,5.85
2019-05-30T01:47:44.619Z,7.10
2019-05-30T01:50:14.479Z,6.53
2019-05-30T01:52:43.715Z,5.37
2019-05-30T01:55:15.558Z,7.03
2019-05-30T01:57:44.889Z,4.55
2019-05-30T02:00:20.831Z,9.58
2019-05-30T02:02:46.042Z,8.98
2019-05-30T02:05:15.802Z,5.33
2019-05-30T02:07:45.045Z,7.15
2019-05-30T02:10:14.592Z,15.70
2019-05-30T02:12:43.894Z,13.75
2019-05-30T02:15:13.780Z,7.20
2019-05-30T02:17:43.071Z,5.60
2019-05-30T02:20:12.623Z,4.67
2019-05-30T02:22:41.850Z,6.42
2019-05-30T02:25:11.548Z,8.25
2019-05-30T02:27:41.028Z,7.90
2019-05-30T02:30:13.984Z,6.55
2019-05-30T02:32:41.482Z,8.95
2019-05-30T02:35:12.843Z,5.85
2019-05-30T02:37:42.490Z,7.50
2019-05-30T02:40:15.193Z,8.13
2019-05-30T02:42:43.489Z,4.90
2019-05-30T02:45:13.206Z,6.00
2019-05-30T02:47:42.462Z,7.53
2019-05-30T02:50:13.885Z,5.00
2019-05-30T02:52:42.871Z,6.80
2019-05-30T02:55:13.593Z,6.40
2019-05-30T02:57:43.161Z,5.47
2019-05-30T03:00:17.111Z,5.30
2019-05-30T03:02:43.732Z,8.75
2019-05-30T03:05:15.073Z,4.97
2019-05-30T03:07:46.424Z,6.25
2019-05-30T03:10:16.183Z,5.65
2019-05-30T03:12:45.514Z,7.50
2019-05-30T03:15:15.859Z,4.85
2019-05-30T03:17:45.416Z,5.87
2019-05-30T03:20:22.517Z,5.22
2019-05-30T03:22:46.611Z,8.98
2019-05-30T03:25:16.440Z,9.75
2019-05-30T03:27:45.888Z,4.78
2019-05-30T03:30:25.227Z,6.10
2019-05-30T03:33:11.900Z,7.50
2019-05-30T03:35:26.856Z,11.48
2019-05-30T03:37:48.455Z,8.83
2019-05-30T03:40:18.479Z,8.50
2019-05-30T03:42:48.704Z,5.55
2019-05-30T03:45:18.168Z,6.22
2019-05-30T03:47:51.619Z,7.15
2019-05-30T03:50:23.568Z,11.03
2019-05-30T03:52:53.501Z,8.80
2019-05-30T03:55:24.266Z,6.92
2019-05-30T03:58:05.572Z,8.48
2019-05-30T04:00:41.910Z,7.60
2019-05-30T04:03:19.212Z,6.35
2019-05-30T04:05:53.050Z,5.37
2019-05-30T04:08:24.910Z,4.35
2019-05-30T04:10:58.231Z,5.53
2019-05-30T04:13:36.159Z,5.45
2019-05-30T04:16:06.858Z,4.62
2019-05-30T04:18:36.386Z,4.50
2019-05-30T04:21:05.700Z,7.00
2019-05-30T04:23:34.947Z,7.58
2019-05-30T04:26:04.231Z,5.58
2019-05-30T04:28:33.495Z,4.70
2019-05-30T04:31:02.693Z,6.62
2019-05-30T04:33:33.694Z,6.47
2019-05-30T04:36:02.855Z,3.80
2019-05-30T04:38:32.055Z,4.25
2019-05-30T04:41:01.363Z,5.20
2019-05-30T04:43:32.099Z,5.00
2019-05-30T04:46:01.360Z,4.22
2019-05-30T04:48:30.665Z,4.70
2019-05-30T04:50:59.990Z,4.25
2019-05-30T04:53:29.305Z,6.90
2019-05-30T04:55:58.723Z,5.42
2019-05-30T04:58:28.007Z,4.55
2019-05-30T05:00:57.229Z,5.58
2019-05-30T05:03:44.374Z,7.28
2019-05-30T05:05:57.430Z,5.30
2019-05-30T05:08:26.640Z,4.65
2019-05-30T05:10:56.044Z,5.65
2019-05-30T05:13:25.439Z,7.33
2019-05-30T05:15:54.859Z,13.38
2019-05-30T05:18:24.067Z,3.90
2019-05-30T05:20:53.304Z,6.62
2019-05-30T05:23:23.550Z,3.20
2019-05-30T05:26:00.721Z,4.95
2019-05-30T05:28:24.052Z,14.70
2019-05-30T05:30:53.403Z,4.20
2019-05-30T05:33:22.726Z,4.30
2019-05-30T05:35:52.070Z,5.08
2019-05-30T05:38:22.427Z,4.80
2019-05-30T05:40:51.822Z,9.08
2019-05-30T05:43:22.388Z,4.80
2019-05-30T05:45:51.866Z,3.60
2019-05-30T05:48:21.087Z,3.67
2019-05-30T05:50:50.348Z,7.10
2019-05-30T05:53:20.762Z,3.33
2019-05-30T05:55:50.202Z,4.80
2019-05-30T05:58:19.380Z,5.45
2019-05-30T06:00:49.799Z,3.80
2019-05-30T06:03:20.272Z,15.30
2019-05-30T06:05:53.380Z,6.90
2019-05-30T06:08:24.165Z,9.38
2019-05-30T06:10:53.252Z,5.53
2019-05-30T06:13:22.909Z,8.05
2019-05-30T06:15:52.277Z,5.53
2019-05-30T06:18:22.251Z,5.42
2019-05-30T06:20:51.661Z,6.28
2019-05-30T06:23:21.599Z,5.05
2019-05-30T06:25:51.024Z,4.33
2019-05-30T06:28:20.262Z,3.70
2019-05-30T06:30:49.643Z,4.40
2019-05-30T06:33:18.925Z,5.33
2019-05-30T06:35:48.163Z,11.73
2019-05-30T06:38:17.431Z,5.75
2019-05-30T06:40:46.654Z,7.83
2019-05-30T06:43:15.903Z,7.17
2019-05-30T06:45:45.118Z,5.40
2019-05-30T06:48:14.962Z,5.50
2019-05-30T06:50:44.206Z,7.47
2019-05-30T06:53:13.515Z,2.92
2019-05-30T06:55:42.968Z,6.30
2019-05-30T06:58:12.323Z,9.70
2019-05-30T07:00:41.603Z,7.65
2019-05-30T07:03:10.880Z,6.97
2019-05-30T07:05:40.653Z,11.43
2019-05-30T07:08:10.238Z,8.60
2019-05-30T07:10:39.426Z,5.15
2019-05-30T07:13:08.818Z,7.47
2019-05-30T07:15:38.042Z,6.37
2019-05-30T07:18:07.768Z,7.10
2019-05-30T07:20:37.095Z,11.75
2019-05-30T07:23:30.149Z,3.00
2019-05-30T07:26:09.969Z,4.55
2019-05-30T07:29:02.907Z,3.98
2019-05-30T07:31:32.253Z,10.95
2019-05-30T07:34:02.517Z,4.65
2019-05-30T07:36:34.969Z,4.42
2019-05-30T07:39:08.037Z,4.35
2019-05-30T07:41:37.431Z,3.17
2019-05-30T07:44:06.894Z,6.58
2019-05-30T07:46:37.196Z,5.03
2019-05-30T07:49:06.682Z,4.95
2019-05-30T07:51:35.953Z,4.20
2019-05-30T07:54:06.939Z,4.33
2019-05-30T07:56:37.910Z,4.80
2019-05-30T07:59:08.574Z,4.45
2019-05-30T08:01:39.649Z,5.72
2019-05-30T08:04:11.190Z,3.42
2019-05-30T08:06:40.442Z,3.27
2019-05-30T08:09:09.845Z,4.03
2019-05-30T08:11:39.316Z,2.05
2019-05-30T08:14:08.526Z,2.92
2019-05-30T08:16:37.768Z,3.83
2019-05-30T08:19:07.118Z,5.08
2019-05-30T08:21:36.384Z,2.40
2019-05-30T08:24:05.873Z,4.42
2019-05-30T08:26:36.176Z,4.75
2019-05-30T08:29:05.881Z,4.28
2019-05-30T08:31:35.233Z,3.08
2019-05-30T08:34:04.606Z,2.70
2019-05-30T08:36:37.020Z,3.35
2019-05-30T08:39:07.710Z,3.62
2019-05-30T08:41:37.386Z,2.70
2019-05-30T08:44:06.722Z,3.20
2019-05-30T08:46:36.019Z,3.42
2019-05-30T08:49:05.322Z,6.55
2019-05-30T08:51:34.698Z,3.70
2019-05-30T08:54:03.927Z,4.17
2019-05-30T08:56:34.455Z,3.37
2019-05-30T08:59:04.245Z,3.15
2019-05-30T09:01:33.567Z,3.95
2019-05-30T09:04:02.985Z,2.92
2019-05-30T09:06:32.340Z,6.30
2019-05-30T09:09:03.967Z,4.62
2019-05-30T09:11:33.208Z,4.85
2019-05-30T09:14:02.496Z,7.47
2019-05-30T09:16:31.901Z,4.08
2019-05-30T09:19:01.154Z,5.10
2019-05-30T09:21:30.379Z,3.08
2019-05-30T09:24:01.388Z,4.72
2019-05-30T09:26:30.590Z,3.42
2019-05-30T09:29:03.748Z,3.67
2019-05-30T09:31:32.458Z,3.50
2019-05-30T09:34:01.777Z,3.27
2019-05-30T09:36:31.122Z,9.08
2019-05-30T09:39:00.822Z,2.65
2019-05-30T09:41:30.020Z,3.50
2019-05-30T09:43:59.297Z,3.80
2019-05-30T09:46:28.549Z,3.02
2019-05-30T09:48:58.027Z,3.20
2019-05-30T09:51:27.248Z,4.62
2019-05-30T09:53:56.586Z,4.22
2019-05-30T09:56:25.885Z,4.28
2019-05-30T09:58:55.045Z,3.47
2019-05-30T10:01:24.346Z,4.25
2019-05-30T10:03:53.654Z,4.58
2019-05-30T10:06:29.525Z,3.33
2019-05-30T10:08:54.135Z,6.45
2019-05-30T10:11:23.377Z,5.35
2019-05-30T10:13:52.934Z,5.45
2019-05-30T10:16:22.351Z,4.53
2019-05-30T10:18:52.705Z,3.70
2019-05-30T10:21:24.565Z,3.87
2019-05-30T10:23:53.848Z,8.38
2019-05-30T10:26:23.102Z,3.37
2019-05-30T10:28:53.333Z,4.70
2019-05-30T10:31:22.736Z,4.75
2019-05-30T10:33:53.026Z,2.60
2019-05-30T10:36:22.581Z,2.75
2019-05-30T10:38:52.207Z,3.12
2019-05-30T10:41:21.582Z,4.08
2019-05-30T10:43:51.146Z,8.00
2019-05-30T10:46:20.751Z,4.70
2019-05-30T10:48:50.924Z,2.17
2019-05-30T10:51:36.403Z,8.98
2019-05-30T10:54:07.311Z,3.60
2019-05-30T10:56:36.570Z,3.02
2019-05-30T10:59:05.880Z,3.33
2019-05-30T11:01:35.067Z,4.65
2019-05-30T11:04:04.490Z,2.65
2019-05-30T11:07:04.819Z,4.08
2019-05-30T11:09:21.889Z,2.72
2019-05-30T11:11:53.003Z,3.30
2019-05-30T11:14:22.864Z,2.58
2019-05-30T11:16:53.663Z,4.85
2019-05-30T11:19:23.043Z,3.95
2019-05-30T11:21:52.846Z,3.37
2019-05-30T11:24:23.240Z,4.12
2019-05-30T11:26:53.831Z,3.60
2019-05-30T11:29:23.604Z,3.65
2019-05-30T11:31:52.975Z,5.05
2019-05-30T11:34:22.147Z,8.05
2019-05-30T11:36:51.458Z,3.42
2019-05-30T11:39:41.785Z,2.22
2019-05-30T11:42:20.090Z,5.05
2019-05-30T11:45:11.429Z,3.87
2019-05-30T11:51:07.210Z,8.65
2019-05-30T11:54:34.183Z,3.35
2019-05-30T11:59:54.319Z,2.67
2019-05-30T12:02:23.539Z,2.25
2019-05-30T12:04:52.627Z,5.97
2019-05-30T12:07:35.409Z,2.85
2019-05-30T12:09:52.925Z,3.65
2019-05-30T12:12:22.340Z,3.58
2019-05-30T12:14:53.383Z,3.80
2019-05-30T12:17:23.403Z,6.53
2019-05-30T12:19:53.454Z,4.05
2019-05-30T12:22:40.038Z,4.37
2019-05-30T12:25:09.455Z,3.08
2019-05-30T12:27:38.394Z,1.97
2019-05-30T12:30:08.226Z,2.67
2019-05-30T12:32:37.194Z,2.57
2019-05-30T12:35:07.279Z,2.60
2019-05-30T12:37:50.270Z,5.50
2019-05-30T12:40:07.435Z,2.35
2019-05-30T12:42:36.489Z,3.13
2019-05-30T12:45:08.991Z,3.13
2019-05-30T12:47:38.354Z,2.47
2019-05-30T12:50:09.063Z,2.13
2019-05-30T12:52:38.187Z,2.70
2019-05-30T12:55:07.728Z,2.27
2019-05-30T12:57:38.523Z,3.40
2019-05-30T13:00:16.930Z,6.10
2019-05-30T13:02:40.035Z,3.30
2019-05-30T13:05:09.413Z,2.40
2019-05-30T13:07:38.370Z,2.20
2019-05-30T13:10:08.583Z,3.77
2019-05-30T13:12:37.648Z,3.27
2019-05-30T13:15:06.855Z,3.70
2019-05-30T13:17:35.910Z,2.20
2019-05-30T13:20:05.936Z,3.20
2019-05-30T13:22:34.878Z,7.47
2019-05-30T13:25:05.685Z,2.73
2019-05-30T13:27:34.858Z,1.80
2019-05-30T13:30:04.796Z,3.37
2019-05-30T13:32:33.827Z,5.17
2019-05-30T13:35:03.437Z,3.30
2019-05-30T13:37:32.454Z,3.97
2019-05-30T13:40:01.489Z,2.50
2019-05-30T13:42:30.600Z,2.83
2019-05-30T13:44:59.898Z,3.00
2019-05-30T13:47:31.378Z,2.80
2019-05-30T13:50:00.826Z,3.07
2019-05-30T13:52:29.790Z,4.47
2019-05-30T13:54:59.087Z,3.10
2019-05-30T13:57:28.285Z,2.30
2019-05-30T13:59:57.531Z,6.05
2019-05-30T14:02:26.558Z,2.90
2019-05-30T14:04:55.673Z,5.33
2019-05-30T14:07:24.672Z,3.03
2019-05-30T14:09:53.725Z,2.90
2019-05-30T14:12:22.674Z,2.50
2019-05-30T14:14:51.712Z,2.97
2019-05-30T14:17:23.167Z,7.80
2019-05-30T14:19:52.118Z,4.00
2019-05-30T14:22:21.070Z,2.90
2019-05-30T14:24:50.111Z,3.40
2019-05-30T14:27:19.101Z,4.60
2019-05-30T14:29:48.140Z,7.13
2019-05-30T14:32:17.189Z,4.03
2019-05-30T14:34:46.122Z,2.20
2019-05-30T14:37:15.058Z,2.40
2019-05-30T14:39:44.076Z,2.40
2019-05-30T14:42:13.329Z,1.77
2019-05-30T14:44:42.307Z,6.33
2019-05-30T14:47:12.279Z,2.10
2019-05-30T14:49:41.565Z,4.90
2019-05-30T14:52:14.010Z,3.60
2019-05-30T14:54:43.481Z,2.50
2019-05-30T14:57:13.051Z,2.23
2019-05-30T14:59:42.186Z,4.90
2019-05-30T15:02:11.326Z,2.50
2019-05-30T15:04:40.299Z,3.63
2019-05-30T15:07:09.352Z,5.13
2019-05-30T15:09:42.420Z,2.80
2019-05-30T15:12:10.697Z,2.90
2019-05-30T15:14:39.684Z,3.37
2019-05-30T15:17:08.635Z,3.17
2019-05-30T15:19:37.592Z,2.23
2019-05-30T15:22:07.457Z,3.30
2019-05-30T15:24:36.401Z,2.57
2019-05-30T15:27:05.966Z,5.07
2019-05-30T15:29:35.070Z,6.23
2019-05-30T15:32:04.114Z,4.90
2019-05-30T15:34:33.323Z,8.90
2019-05-30T15:37:02.337Z,3.50
2019-05-30T15:39:32.999Z,2.20
2019-05-30T15:42:02.191Z,4.08
2019-05-30T15:44:31.202Z,3.03
2019-05-30T15:47:00.474Z,3.25
2019-05-30T15:49:29.714Z,2.80
2019-05-30T15:51:59.087Z,4.20
2019-05-30T15:54:28.389Z,4.40
2019-05-30T15:56:57.667Z,3.17
2019-05-30T15:59:26.880Z,2.33
2019-05-30T16:01:56.170Z,1.80
2019-05-30T16:04:25.474Z,4.37
2019-05-30T16:06:54.713Z,4.30
2019-05-30T16:09:23.973Z,3.60
2019-05-30T16:11:53.260Z,3.75
2019-05-30T16:14:22.491Z,2.45
2019-05-30T16:16:51.742Z,2.33
2019-05-30T16:19:24.759Z,2.42
2019-05-30T16:21:51.842Z,2.47
2019-05-30T16:24:21.051Z,3.47
2019-05-30T16:26:50.234Z,3.73
2019-05-30T16:29:19.834Z,3.65
2019-05-30T16:31:49.754Z,4.95
2019-05-30T16:34:20.088Z,4.92
2019-05-30T16:36:49.541Z,2.40
2019-05-30T16:39:18.768Z,2.90
2019-05-30T16:41:47.978Z,2.27
2019-05-30T16:44:18.382Z,2.30
2019-05-30T16:46:47.715Z,2.95
2019-05-30T16:49:18.540Z,2.75
2019-05-30T16:51:47.752Z,3.60
2019-05-30T16:54:17.210Z,3.62
2019-05-30T16:56:46.459Z,2.00
2019-05-30T16:59:16.547Z,6.03
2019-05-30T17:01:56.410Z,2.65
2019-05-30T17:04:17.000Z,5.53
2019-05-30T17:06:47.326Z,2.40
2019-05-30T17:09:17.174Z,3.05
2019-05-30T17:11:46.488Z,5.80
2019-05-30T17:14:15.834Z,2.70
2019-05-30T17:16:45.167Z,2.85
2019-05-30T17:19:14.480Z,3.55
2019-05-30T17:21:43.775Z,3.05
2019-05-30T17:24:13.055Z,3.95
2019-05-30T17:26:42.279Z,6.35
2019-05-30T17:29:11.577Z,2.35
2019-05-30T17:31:41.022Z,2.83
2019-05-30T17:34:10.650Z,3.90
2019-05-30T17:36:39.946Z,3.47
2019-05-30T17:39:09.930Z,2.77
2019-05-30T17:41:39.232Z,3.80
2019-05-30T17:44:08.522Z,2.75
2019-05-30T17:46:37.849Z,5.50
2019-05-30T17:49:08.451Z,3.37
2019-05-30T17:51:37.658Z,4.60
2019-05-30T17:54:07.059Z,2.90
2019-05-30T17:56:36.337Z,3.75
2019-05-30T17:59:05.614Z,4.58
2019-05-30T18:01:34.864Z,5.03
2019-05-30T18:04:04.218Z,5.00
2019-05-30T18:06:33.479Z,4.53
2019-05-30T18:09:02.874Z,2.95
2019-05-30T18:11:32.114Z,3.87
2019-05-30T18:14:01.318Z,3.37
2019-05-30T18:16:31.453Z,5.33
2019-05-30T18:19:00.840Z,2.67
2019-05-30T18:21:30.135Z,3.87
2019-05-30T18:23:59.466Z,3.37
2019-05-30T18:26:29.665Z,2.75
2019-05-30T18:29:01.139Z,4.37
2019-05-30T18:31:30.474Z,3.42
2019-05-30T18:33:59.703Z,2.90
2019-05-30T18:36:29.031Z,5.90
2019-05-30T18:38:58.418Z,3.37
2019-05-30T18:41:28.715Z,4.28
2019-05-30T18:44:12.881Z,3.05
2019-05-30T18:46:45.455Z,3.22
2019-05-30T18:49:35.636Z,3.08
2019-05-30T18:52:05.750Z,4.50
2019-05-30T18:54:37.151Z,12.47
2019-05-30T18:57:06.621Z,3.95
2019-05-30T18:59:35.946Z,4.30
2019-05-30T19:02:07.702Z,7.22
2019-05-30T19:04:38.072Z,5.85
2019-05-30T19:07:07.518Z,7.58
2019-05-30T19:09:37.452Z,4.83
2019-05-30T19:12:06.931Z,7.58
2019-05-30T19:14:37.435Z,4.70
2019-05-30T19:17:06.806Z,7.30
2019-05-30T19:19:36.064Z,9.80
2019-05-30T19:22:05.634Z,7.42
2019-05-30T19:24:34.868Z,7.90
2019-05-30T19:27:04.409Z,7.08
2019-05-30T19:29:34.819Z,5.20
2019-05-30T19:32:04.342Z,11.05
2019-05-30T19:34:35.168Z,6.80
2019-05-30T19:37:04.446Z,8.03
2019-05-30T19:39:33.902Z,7.80
2019-05-30T19:42:03.237Z,12.13
2019-05-30T19:44:37.471Z,12.47
2019-05-30T19:47:03.370Z,8.23
2019-05-30T19:49:32.668Z,9.20
2019-05-30T19:52:02.015Z,9.88
2019-05-30T19:54:31.238Z,8.13
2019-05-30T19:57:00.608Z,7.67
2019-05-30T19:59:29.935Z,8.40
2019-05-30T20:01:59.285Z,12.80
2019-05-30T20:04:28.685Z,12.63
2019-05-30T20:06:57.994Z,9.65
2019-05-30T20:09:27.594Z,10.90
2019-05-30T20:12:03.094Z,12.37
2019-05-30T20:14:30.923Z,11.53
2019-05-30T20:17:00.398Z,11.12
2019-05-30T20:19:31.549Z,10.43
2019-05-30T20:22:01.050Z,14.30
2019-05-30T20:24:30.342Z,11.90
2019-05-30T20:26:59.690Z,10.13
2019-05-30T20:29:29.017Z,12.90
2019-05-30T20:31:58.343Z,12.37
2019-05-30T20:34:27.622Z,15.40
2019-05-30T20:36:56.855Z,14.15
2019-05-30T20:39:26.122Z,22.58
2019-05-30T20:41:57.980Z,14.10
2019-05-30T20:44:27.407Z,13.35
2019-05-30T20:46:56.651Z,12.40
2019-05-30T20:49:25.923Z,13.20
2019-05-30T20:51:55.155Z,16.30
2019-05-30T20:54:24.405Z,11.55
2019-05-30T20:56:53.598Z,13.35
2019-05-30T20:59:22.857Z,11.28
2019-05-30T21:01:52.230Z,13.35
2019-05-30T21:04:21.570Z,13.80
2019-05-30T21:06:51.166Z,17.62
2019-05-30T21:09:28.928Z,11.45
2019-05-30T21:11:53.386Z,13.85
2019-05-30T21:14:27.309Z,11.88
2019-05-30T21:16:56.469Z,15.70
2019-05-30T21:19:25.758Z,16.02
2019-05-30T21:21:55.007Z,16.82
2019-05-30T21:24:24.313Z,12.90
2019-05-30T21:26:56.596Z,15.75
2019-05-30T21:29:33.010Z,10.93
2019-05-30T21:32:02.343Z,12.75
2019-05-30T21:34:31.709Z,12.53
2019-05-30T21:37:00.887Z,11.57
2019-05-30T21:39:30.438Z,12.47
2019-05-30T21:41:59.761Z,14.28
2019-05-30T21:44:28.999Z,15.48
2019-05-30T21:46:58.427Z,15.53
2019-05-30T21:49:27.650Z,13.83
2019-05-30T21:51:56.951Z,12.18
2019-05-30T21:54:26.297Z,16.02
2019-05-30T21:56:55.495Z,12.90
2019-05-30T21:59:24.724Z,11.57
2019-05-30T22:01:57.054Z,9.30
2019-05-30T22:04:24.953Z,9.73
2019-05-30T22:06:54.391Z,8.20
2019-05-30T22:09:23.657Z,11.53
2019-05-30T22:11:53.029Z,8.90
2019-05-30T22:14:23.338Z,11.08
2019-05-30T22:16:52.685Z,15.25
2019-05-30T22:19:22.272Z,18.10
2019-05-30T22:21:52.347Z,14.70
2019-05-30T22:24:21.858Z,15.10
2019-05-30T22:26:51.083Z,12.70
2019-05-30T22:29:20.547Z,10.53
2019-05-30T22:31:51.038Z,12.98
2019-05-30T22:34:20.325Z,9.98
2019-05-30T22:36:49.538Z,9.15
2019-05-30T22:39:21.371Z,7.53
2019-05-30T22:41:50.603Z,10.15
2019-05-30T22:44:19.883Z,10.25
2019-05-30T22:46:50.218Z,8.78
2019-05-30T22:49:19.538Z,11.68
2019-05-30T22:51:49.006Z,10.53
2019-05-30T22:54:18.308Z,10.78
2019-05-30T22:56:47.538Z,11.85
2019-05-30T22:59:16.741Z,10.80
2019-05-30T23:01:46.893Z,12.80
2019-05-30T23:04:16.260Z,12.63
2019-05-30T23:06:46.276Z,12.55
2019-05-30T23:09:15.601Z,16.55
2019-05-30T23:11:45.569Z,13.85
2019-05-30T23:14:14.842Z,9.75
2019-05-30T23:16:44.251Z,11.53
2019-05-30T23:19:13.530Z,10.20
2019-05-30T23:21:42.757Z,12.93
2019-05-30T23:24:12.305Z,12.60
2019-05-30T23:26:41.691Z,10.53
2019-05-30T23:29:10.876Z,11.15
2019-05-30T23:31:40.123Z,11.38
2019-05-30T23:34:09.368Z,14.28
2019-05-30T23:36:38.599Z,13.45
2019-05-30T23:39:07.865Z,12.05
2019-05-30T23:41:37.163Z,11.00
2019-05-30T23:44:10.881Z,9.58
2019-05-30T23:46:37.336Z,11.78
2019-05-30T23:49:06.562Z,13.35
2019-05-30T23:51:35.762Z,10.70
2019-05-30T23:54:05.084Z,13.80
2019-05-30T23:56:34.352Z,10.35
2019-05-30T23:59:03.646Z,13.38
